Concho — WDI7438 — position and weather

sailwx.info

Track history (hours):
 
Tides and Currents Weather Stations Pressure Air Temp Water Temp Dewpoint Dewpoint Depression Visibility Wind Speed Wind Dir Waves Ship Positions

Concho

Owner: Kirby Inland Marine LP, Houston, TX. More information available from US FCC via Universal Licensing System and Coast Guard Vessel Documentation Center.

Last reported at 2017-Nov-23 23:25 UTC. Time now 2017-Nov-24 07:43 UTC.
Position N 29°26' W 094°50'.

Length 208 m; draft 2.9 m.

Type: . MMSI: 367728730.

Date/timePositionNaut miles runAvg speedWind from/ knotsBaromVisibWave heightAir tempDewpointWater temp
2017-Nov-23 23:25N 29°26' W 094°50'3 6.7
2017-Nov-23 22:58N 29°29' W 094°51'3 6.6
2017-Nov-23 22:30N 29°31' W 094°53'3 6.8
2017-Nov-23 22:00N 29°34' W 094°55'3 6.7
2017-Nov-23 21:31N 29°37' W 094°57'4 7.0
2017-Nov-23 21:01N 29°40' W 094°59'3 6.7
2017-Nov-23 20:30N 29°43' W 095°01'3 6.2
2017-Nov-23 20:00N 29°45' W 095°04'2 4.9
2017-Nov-23 19:30N 29°44' W 095°07'4 6.5
2017-Nov-23 18:52N 29°45' W 095°11'  
2017-Nov-18 09:39N 29°44' W 095°08'1 2.6
2017-Nov-18 09:25N 29°44' W 095°09'3 0.2
2017-Nov-17 18:05N 29°45' W 095°06'1 0.1
2017-Nov-17 12:22N 29°46' W 095°05'3 5.9
2017-Nov-17 11:51N 29°44' W 095°08'2 5.4
2017-Nov-17 11:27N 29°45' W 095°10'0 0.0
2017-Nov-17 08:42N 29°45' W 095°10'0 0.0
2017-Nov-17 08:15N 29°45' W 095°10'0 0.0
2017-Nov-17 06:41N 29°45' W 095°10'0 0.3
2017-Nov-17 06:30N 29°45' W 095°10'0 0.0
2017-Nov-17 06:00N 29°45' W 095°10'1 2.3
2017-Nov-17 05:30N 29°44' W 095°09'4 6.5
2017-Nov-17 04:56N 29°46' W 095°05'5 4.9
2017-Nov-17 04:00N 29°43' W 095°01'3 6.2
2017-Nov-17 03:30N 29°41' W 094°59'3 6.1
2017-Nov-17 03:00N 29°38' W 094°58'4 7.1
2017-Nov-17 02:30N 29°35' W 094°56'4 7.5
2017-Nov-17 02:00N 29°32' W 094°53'4 0.1
2017-Nov-15 20:50N 29°28' W 094°51'2 7.2
2017-Nov-15 20:30N 29°30' W 094°52'4 7.4
2017-Nov-15 20:00N 29°33' W 094°55'4 7.5
2017-Nov-15 19:30N 29°36' W 094°57'4 7.9
2017-Nov-15 18:59N 29°40' W 094°59'4 7.5
2017-Nov-15 18:30N 29°43' W 095°01'5 1.5
2017-Nov-15 15:17N 29°47' W 095°05'1 4.7
2017-Nov-15 15:00N 29°46' W 095°05'0 0.4
2017-Nov-15 13:49N 29°45' W 095°06'1 0.5
2017-Nov-15 12:37N 29°45' W 095°06'1 6.1
2017-Nov-15 12:30N 29°46' W 095°06'1 1.0
2017-Nov-15 11:34N 29°45' W 095°06'0 0.2
2017-Nov-15 11:24N 29°45' W 095°06'1 0.1
2017-Nov-15 00:48N 29°46' W 095°05'1 4.4
2017-Nov-15 00:28N 29°47' W 095°05'0 0.2
2017-Nov-15 00:00N 29°47' W 095°05'0 0.1
2017-Nov-14 23:09N 29°47' W 095°05'1 5.6
2017-Nov-14 23:00N 29°46' W 095°05'2 0.1
2017-Nov-14 11:56N 29°45' W 095°06'1 2.2
2017-Nov-14 11:26N 29°46' W 095°05'1 0.1
2017-Nov-14 03:42N 29°45' W 095°06'1 3.1
2017-Nov-14 03:28N 29°45' W 095°06'2 3.2
2017-Nov-14 02:55N 29°47' W 095°05'0 0.1
2017-Nov-14 02:03N 29°47' W 095°04'0 0.3
2017-Nov-14 01:32N 29°47' W 095°04'0 1.9
2017-Nov-14 01:27N 29°47' W 095°04'0 0.0
2017-Nov-14 00:45N 29°47' W 095°04'0 0.2
2017-Nov-14 00:30N 29°47' W 095°05'0 0.0
2017-Nov-14 00:00N 29°47' W 095°05'0 0.0
2017-Nov-13 23:30N 29°47' W 095°05'  
Track history (hours):
 
Tides and Currents Weather Stations Pressure Air Temp Water Temp Dewpoint Dewpoint Depression Visibility Wind Speed Wind Dir Waves Ship Positions

Concho

Owner: Kirby Inland Marine LP, Houston, TX. More information available from US FCC via Universal Licensing System and Coast Guard Vessel Documentation Center.

Last reported at 2017-Nov-23 23:25 UTC. Time now 2017-Nov-24 07:43 UTC.
Position N 29°26' W 094°50'.

Length 208 m; draft 2.9 m.

Type: . MMSI: 367728730.

Date/timePositionNaut miles runAvg speedWind from/ knotsBaromVisibWave heightAir tempDewpointWater temp
2017-Nov-23 23:25N 29°26' W 094°50'3 6.7
2017-Nov-23 22:58N 29°29' W 094°51'3 6.6
2017-Nov-23 22:30N 29°31' W 094°53'3 6.8
2017-Nov-23 22:00N 29°34' W 094°55'3 6.7
2017-Nov-23 21:31N 29°37' W 094°57'4 7.0
2017-Nov-23 21:01N 29°40' W 094°59'3 6.7
2017-Nov-23 20:30N 29°43' W 095°01'3 6.2
2017-Nov-23 20:00N 29°45' W 095°04'2 4.9
2017-Nov-23 19:30N 29°44' W 095°07'4 6.5
2017-Nov-23 18:52N 29°45' W 095°11'  
2017-Nov-18 09:39N 29°44' W 095°08'1 2.6
2017-Nov-18 09:25N 29°44' W 095°09'3 0.2
2017-Nov-17 18:05N 29°45' W 095°06'1 0.1
2017-Nov-17 12:22N 29°46' W 095°05'3 5.9
2017-Nov-17 11:51N 29°44' W 095°08'2 5.4
2017-Nov-17 11:27N 29°45' W 095°10'0 0.0
2017-Nov-17 08:42N 29°45' W 095°10'0 0.0
2017-Nov-17 08:15N 29°45' W 095°10'0 0.0
2017-Nov-17 06:41N 29°45' W 095°10'0 0.3
2017-Nov-17 06:30N 29°45' W 095°10'0 0.0
2017-Nov-17 06:00N 29°45' W 095°10'1 2.3
2017-Nov-17 05:30N 29°44' W 095°09'4 6.5
2017-Nov-17 04:56N 29°46' W 095°05'5 4.9
2017-Nov-17 04:00N 29°43' W 095°01'3 6.2
2017-Nov-17 03:30N 29°41' W 094°59'3 6.1
2017-Nov-17 03:00N 29°38' W 094°58'4 7.1
2017-Nov-17 02:30N 29°35' W 094°56'4 7.5
2017-Nov-17 02:00N 29°32' W 094°53'4 0.1
2017-Nov-15 20:50N 29°28' W 094°51'2 7.2
2017-Nov-15 20:30N 29°30' W 094°52'4 7.4
2017-Nov-15 20:00N 29°33' W 094°55'4 7.5
2017-Nov-15 19:30N 29°36' W 094°57'4 7.9
2017-Nov-15 18:59N 29°40' W 094°59'4 7.5
2017-Nov-15 18:30N 29°43' W 095°01'5 1.5
2017-Nov-15 15:17N 29°47' W 095°05'1 4.7
2017-Nov-15 15:00N 29°46' W 095°05'0 0.4
2017-Nov-15 13:49N 29°45' W 095°06'1 0.5
2017-Nov-15 12:37N 29°45' W 095°06'1 6.1
2017-Nov-15 12:30N 29°46' W 095°06'1 1.0
2017-Nov-15 11:34N 29°45' W 095°06'0 0.2
2017-Nov-15 11:24N 29°45' W 095°06'1 0.1
2017-Nov-15 00:48N 29°46' W 095°05'1 4.4
2017-Nov-15 00:28N 29°47' W 095°05'0 0.2
2017-Nov-15 00:00N 29°47' W 095°05'0 0.1
2017-Nov-14 23:09N 29°47' W 095°05'1 5.6
2017-Nov-14 23:00N 29°46' W 095°05'2 0.1
2017-Nov-14 11:56N 29°45' W 095°06'1 2.2
2017-Nov-14 11:26N 29°46' W 095°05'1 0.1
2017-Nov-14 03:42N 29°45' W 095°06'1 3.1
2017-Nov-14 03:28N 29°45' W 095°06'2 3.2
2017-Nov-14 02:55N 29°47' W 095°05'0 0.1
2017-Nov-14 02:03N 29°47' W 095°04'0 0.3
2017-Nov-14 01:32N 29°47' W 095°04'0 1.9
2017-Nov-14 01:27N 29°47' W 095°04'0 0.0
2017-Nov-14 00:45N 29°47' W 095°04'0 0.2
2017-Nov-14 00:30N 29°47' W 095°05'0 0.0
2017-Nov-14 00:00N 29°47' W 095°05'0 0.0
2017-Nov-13 23:30N 29°47' W 095°05'  

Dump ship's entire track history